Time;durP1;ratioP1;P1;durP2;ratioP2;P2;SDS_P1;SDS_P2;PMS_P1;PMS_P2;Temp;Humidity;BMP_temperature;BMP_pressure;BME280_temperature;BME280_humidity;BME280_pressure;Samples;Min_cycle;Max_cycle;Signal;HPM_P1;HPM_P2
2023/03/02 00:02:03;;;;;;;61.60;30.20;;;;;;;-1.85;99.39;101993.17;109262;1244;72521;-74
2023/03/02 00:04:36;;;;;;;58.70;27.30;;;;;;;-1.80;99.17;101996.23;109308;1244;71270;-73
2023/03/02 00:07:10;;;;;;;94.40;37.50;;;;;;;-1.74;98.76;101995.20;109612;1245;68517;-75
2023/03/02 00:09:38;;;;;;;117.00;46.30;;;;;;;-1.71;98.44;101990.92;109390;1244;73866;-77
2023/03/02 00:12:07;;;;;;;128.40;50.00;;;;;;;-1.71;98.33;101988.54;109419;1246;62523;-75
2023/03/02 00:14:36;;;;;;;88.00;38.30;;;;;;;-1.70;98.36;101991.10;109507;1247;59992;-73
2023/03/02 00:17:06;;;;;;;78.80;37.40;;;;;;;-1.72;98.47;101988.36;109641;1242;72664;-73
2023/03/02 00:19:35;;;;;;;68.80;33.50;;;;;;;-1.72;98.02;101986.84;109467;1244;71762;-73
2023/03/02 00:22:03;;;;;;;67.80;32.30;;;;;;;-1.79;98.22;101989.91;109552;1244;69549;-74
2023/03/02 00:24:30;;;;;;;49.20;22.70;;;;;;;-1.78;98.33;101990.77;109287;1245;73815;-73
2023/03/02 00:26:58;;;;;;;34.30;16.00;;;;;;;-1.69;97.40;101987.52;109259;1246;59957;-73
2023/03/02 00:29:26;;;;;;;52.00;24.80;;;;;;;-1.73;97.07;101988.37;109457;1243;60374;-76
2023/03/02 00:31:53;;;;;;;48.80;23.30;;;;;;;-1.84;97.02;101984.45;109321;1244;73938;-75
2023/03/02 00:34:21;;;;;;;43.10;20.20;;;;;;;-1.89;97.14;101986.50;109420;1244;69462;-75
2023/03/02 00:36:49;;;;;;;50.30;22.60;;;;;;;-1.91;97.09;101987.02;109354;1243;69976;-72
2023/03/02 00:39:18;;;;;;;52.10;25.20;;;;;;;-1.99;97.20;101987.20;109414;1244;71359;-76
2023/03/02 00:41:47;;;;;;;48.20;25.30;;;;;;;-2.09;98.70;101986.52;109734;1244;61974;-76
2023/03/02 00:44:16;;;;;;;52.60;24.80;;;;;;;-2.04;98.59;101983.79;109276;1244;60603;-73
2023/03/02 00:46:44;;;;;;;56.30;26.10;;;;;;;-2.01;97.98;101980.02;109401;1242;73322;-77
2023/03/02 00:49:12;;;;;;;49.90;25.30;;;;;;;-2.00;98.06;101977.80;109251;1244;72042;-77
2023/03/02 00:51:39;;;;;;;51.40;26.20;;;;;;;-2.00;98.06;101973.02;109456;1245;69270;-76
2023/03/02 00:54:07;;;;;;;52.10;25.90;;;;;;;-1.98;97.73;101975.59;109289;1242;73858;-77
2023/03/02 00:56:34;;;;;;;53.10;26.00;;;;;;;-2.03;97.43;101974.38;109344;1245;60010;-78
2023/03/02 00:59:05;;;;;;;50.70;24.80;;;;;;;-2.13;97.35;101975.92;109329;1245;60365;-78
2023/03/02 01:01:33;;;;;;;51.90;26.50;;;;;;;-2.22;98.98;101979.16;109362;1244;72711;-77
2023/03/02 01:04:00;;;;;;;53.40;27.20;;;;;;;-2.30;99.93;101980.52;109267;1248;71282;-79
2023/03/02 01:06:28;;;;;;;47.30;24.30;;;;;;;-2.32;99.74;101974.38;109499;1243;69724;-78
2023/03/02 01:08:55;;;;;;;36.40;17.00;;;;;;;-2.32;98.71;101976.42;109280;1243;71678;-75
2023/03/02 01:11:23;;;;;;;47.90;23.00;;;;;;;-2.38;98.41;101980.84;109315;1245;61002;-75
2023/03/02 01:13:51;;;;;;;49.60;21.50;;;;;;;-2.47;98.77;101983.73;109620;1242;60806;-75
2023/03/02 01:16:18;;;;;;;53.50;24.90;;;;;;;-2.57;99.02;101983.72;109588;1245;71670;-76
2023/03/02 01:18:46;;;;;;;53.30;26.70;;;;;;;-2.69;99.74;101982.16;109712;1244;71004;-76
2023/03/02 01:21:15;;;;;;;49.80;25.60;;;;;;;-2.72;100.00;101981.12;109468;1248;68428;-76
2023/03/02 01:23:42;;;;;;;52.50;25.90;;;;;;;-2.72;100.00;101981.65;109642;1248;71772;-75
2023/03/02 01:26:10;;;;;;;56.30;25.90;;;;;;;-2.72;100.00;101976.52;109889;1246;62483;-74
2023/03/02 01:28:37;;;;;;;43.20;19.50;;;;;;;-2.69;100.00;101977.89;109678;1248;59298;-74
2023/03/02 01:31:05;;;;;;;50.80;22.10;;;;;;;-2.68;99.98;101971.77;109581;1245;72172;-76
2023/03/02 01:33:32;;;;;;;53.50;26.50;;;;;;;-2.67;99.96;101979.61;110046;1246;70883;-75
2023/03/02 01:36:00;;;;;;;52.70;26.80;;;;;;;-2.71;99.83;101981.98;110030;1245;68074;-74
2023/03/02 01:38:28;;;;;;;61.20;29.30;;;;;;;-2.73;100.00;101987.26;109937;1243;73730;-74
2023/03/02 01:40:55;;;;;;;51.60;24.20;;;;;;;-2.66;100.00;101992.41;109743;1246;61431;-74
2023/03/02 01:43:23;;;;;;;56.00;26.10;;;;;;;-2.57;100.00;101991.39;109720;1244;59517;-75
2023/03/02 01:45:58;;;;;;;51.90;26.50;;;;;;;-2.55;100.00;101993.27;109516;1244;73654;-73
2023/03/02 01:48:46;;;;;;;52.70;26.20;;;;;;;-2.50;100.00;101994.65;109528;1244;73486;-75
2023/03/02 01:51:19;;;;;;;58.00;25.50;;;;;;;-2.38;100.00;101997.92;109529;1249;68870;-74
2023/03/02 01:53:50;;;;;;;;;;;;;;;-2.41;99.83;101999.61;109433;1248;71891;-74
2023/03/02 01:56:25;;;;;;;55.50;27.40;;;;;;;-2.52;100.00;101995.34;109387;1249;60484;-75
2023/03/02 01:59:00;;;;;;;52.80;24.70;;;;;;;-2.53;99.82;101996.52;109537;1244;61131;-75
2023/03/02 02:01:35;;;;;;;45.30;21.60;;;;;;;-2.56;99.13;101994.30;109367;1251;72675;-72
2023/03/02 02:04:03;;;;;;;54.00;25.80;;;;;;;-2.63;99.01;101993.27;109525;1248;70280;-81
2023/03/02 02:06:49;;;;;;;53.70;25.30;;;;;;;-2.72;99.60;101990.84;109496;1244;69636;-73
2023/03/02 02:09:20;;;;;;;56.50;27.20;;;;;;;-2.78;100.00;101984.35;109378;1249;71546;-77
2023/03/02 02:11:47;;;;;;;54.60;27.00;;;;;;;-2.80;100.00;101980.75;109193;1248;398314;-77
2023/03/02 02:14:15;;;;;;;51.30;25.90;;;;;;;-2.81;100.00;101983.66;109329;1248;58724;-74
2023/03/02 02:16:43;;;;;;;53.80;26.30;;;;;;;-2.82;100.00;101978.02;109428;1248;73467;-74
2023/03/02 02:19:37;;;;;;;61.60;26.40;;;;;;;-2.80;100.00;101978.88;109638;1244;70799;-75
2023/03/02 02:22:05;;;;;;;53.50;25.40;;;;;;;-2.75;100.00;101981.97;109639;1243;69703;-74
2023/03/02 02:24:41;;;;;;;53.50;24.70;;;;;;;-2.69;100.00;101980.96;109508;1248;72115;-75
2023/03/02 02:27:10;;;;;;;52.60;26.60;;;;;;;-2.62;100.00;101982.17;109494;1246;61923;-75
2023/03/02 02:29:48;;;;;;;54.90;26.70;;;;;;;-2.55;100.00;101979.45;109452;1247;61420;-75
2023/03/02 02:32:22;;;;;;;56.10;28.10;;;;;;;-2.49;100.00;101974.70;109494;1244;73474;-75
2023/03/02 02:34:55;;;;;;;52.50;26.50;;;;;;;-2.42;100.00;101970.78;109520;1244;71754;-75
2023/03/02 02:37:32;;;;;;;52.00;26.30;;;;;;;-2.34;100.00;101968.75;109381;1248;70330;-74
2023/03/02 02:40:06;;;;;;;54.00;25.90;;;;;;;-2.26;100.00;101971.14;109439;1245;72443;-74
2023/03/02 02:42:41;;;;;;;52.30;26.50;;;;;;;-2.20;100.00;101967.22;109468;1247;60406;-74
2023/03/02 02:45:39;;;;;;;50.00;26.80;;;;;;;-2.14;100.00;101966.88;109406;1244;60030;-75
2023/03/02 02:48:21;;;;;;;56.90;27.50;;;;;;;-2.12;99.95;101968.23;109411;1245;73545;-75
2023/03/02 02:50:59;;;;;;;51.80;25.70;;;;;;;-2.08;99.80;101964.83;109662;1244;70247;-73
2023/03/02 02:53:57;;;;;;;50.10;25.10;;;;;;;-2.06;99.44;101970.45;109726;1242;68715;-74
2023/03/02 02:56:33;;;;;;;45.00;23.60;;;;;;;-2.03;99.55;101964.30;109472;1244;73906;-74
2023/03/02 02:59:15;;;;;;;46.30;23.70;;;;;;;-1.99;99.36;101963.28;109500;1248;61914;-74
2023/03/02 03:01:46;;;;;;;47.00;23.20;;;;;;;-1.93;99.43;101962.77;109375;1244;60038;-71
2023/03/02 03:04:21;;;;;;;52.90;25.20;;;;;;;-1.90;99.12;101962.27;109402;1244;73580;-72
2023/03/02 03:06:54;;;;;;;51.70;25.40;;;;;;;-1.87;99.03;101968.23;109547;1244;72597;-74
2023/03/02 03:09:22;;;;;;;49.50;24.20;;;;;;;-1.88;99.38;101964.13;109462;1244;70256;-75
2023/03/02 03:12:21;;;;;;;54.20;26.40;;;;;;;-1.82;99.34;101968.23;109391;1245;74074;-73
2023/03/02 03:14:50;;;;;;;49.50;25.30;;;;;;;-1.78;99.00;101968.55;109464;1247;62550;-76
2023/03/02 03:17:18;;;;;;;50.60;26.30;;;;;;;-1.81;98.67;101966.02;109421;1245;59178;-75
2023/03/02 03:20:04;;;;;;;51.20;24.50;;;;;;;-1.83;98.70;101967.04;109417;1244;70795;-75
2023/03/02 03:22:36;;;;;;;50.50;25.80;;;;;;;-1.82;99.17;101966.86;109441;1244;71161;-75
2023/03/02 03:25:05;;;;;;;46.30;24.70;;;;;;;-1.76;99.18;101968.73;109536;1244;68982;-74
2023/03/02 03:27:33;;;;;;;44.70;22.50;;;;;;;-1.73;99.59;101966.52;109469;1244;74184;-75
2023/03/02 03:30:00;;;;;;;46.40;23.50;;;;;;;-1.67;99.04;101967.52;109366;1247;62562;-73
2023/03/02 03:32:29;;;;;;;44.00;22.40;;;;;;;-1.63;98.94;101965.80;109505;1244;61143;-72
2023/03/02 03:34:56;;;;;;;48.90;25.90;;;;;;;-1.58;98.90;101962.21;109529;1244;71577;-72
2023/03/02 03:37:27;;;;;;;50.10;25.10;;;;;;;-1.52;98.93;101960.48;109520;1244;71346;-71
2023/03/02 03:39:54;;;;;;;42.50;22.70;;;;;;;-1.48;98.53;101961.84;109479;1244;71062;-74
2023/03/02 03:42:22;;;;;;;47.20;23.10;;;;;;;-1.44;98.41;101961.14;109331;1242;71570;-74
2023/03/02 03:44:50;;;;;;;45.20;23.50;;;;;;;-1.40;98.01;101959.94;109298;1247;61023;-75
2023/03/02 03:47:18;;;;;;;43.70;23.00;;;;;;;-1.39;97.93;101957.21;109387;1244;59904;-73
2023/03/02 03:49:46;;;;;;;45.90;22.90;;;;;;;-1.34;97.49;101959.92;109312;1244;71355;-73
2023/03/02 03:52:13;;;;;;;50.30;25.40;;;;;;;-1.30;97.20;101960.93;109292;1244;72796;-74
2023/03/02 03:54:41;;;;;;;48.00;23.30;;;;;;;-1.28;97.36;101962.30;109223;1243;67731;-73
2023/03/02 03:57:10;;;;;;;46.40;23.10;;;;;;;-1.26;97.03;101961.42;109199;1245;72748;-73
2023/03/02 03:59:38;;;;;;;43.60;22.50;;;;;;;-1.25;97.05;101961.59;109182;1248;58326;-76
2023/03/02 04:02:06;;;;;;;43.80;22.50;;;;;;;-1.27;96.81;101961.09;109271;1244;60488;-76
2023/03/02 04:04:37;;;;;;;50.70;25.00;;;;;;;-1.30;96.51;101964.34;109180;1243;72632;-75
2023/03/02 04:07:13;;;;;;;49.10;23.50;;;;;;;-1.34;96.82;101961.98;109275;1244;71425;-77
2023/03/02 04:09:42;;;;;;;49.50;25.00;;;;;;;-1.34;96.80;101965.05;109189;1243;71174;-77
2023/03/02 04:12:12;;;;;;;43.90;21.70;;;;;;;-1.35;96.59;101967.10;108989;1244;73112;-77
2023/03/02 04:14:44;;;;;;;46.50;24.00;;;;;;;-1.36;97.10;101968.98;109202;1248;62639;-75
2023/03/02 04:17:12;;;;;;;49.10;24.80;;;;;;;-1.35;97.11;101970.18;109279;1244;61289;-74
2023/03/02 04:19:42;;;;;;;49.30;23.90;;;;;;;-1.37;97.79;101968.98;109262;1244;71298;-74
2023/03/02 04:22:10;;;;;;;49.40;23.70;;;;;;;-1.36;97.65;101965.23;109310;1243;72789;-72
2023/03/02 04:24:37;;;;;;;50.20;23.80;;;;;;;-1.32;97.52;101966.59;109285;1243;68423;-75
2023/03/02 04:27:05;;;;;;;44.60;23.40;;;;;;;-1.31;97.39;101965.20;109453;1244;73023;-76
2023/03/02 04:29:35;;;;;;;44.20;22.70;;;;;;;-1.32;97.51;101963.16;109228;1247;61914;-74
2023/03/02 04:32:05;;;;;;;46.90;21.90;;;;;;;-1.30;97.95;101962.81;109147;1243;58503;-74
2023/03/02 04:34:33;;;;;;;45.50;22.50;;;;;;;-1.28;97.28;101968.27;109268;1244;69671;-74
2023/03/02 04:37:01;;;;;;;47.70;22.20;;;;;;;-1.27;97.65;101963.48;109335;1245;71719;-74
2023/03/02 04:39:29;;;;;;;35.50;17.50;;;;;;;-1.23;97.36;101961.09;109524;1242;69001;-74
2023/03/02 04:41:56;;;;;;;27.60;14.00;;;;;;;-1.12;96.88;101963.42;109497;1244;72647;-75
2023/03/02 04:44:24;;;;;;;32.90;15.20;;;;;;;-1.16;96.74;101969.77;109479;1244;61263;-74
2023/03/02 04:46:51;;;;;;;36.30;16.70;;;;;;;-1.18;96.86;101965.67;109448;1244;60457;-72
2023/03/02 04:49:19;;;;;;;43.20;17.40;;;;;;;-1.18;97.15;101965.16;109211;1244;71701;-73
2023/03/02 04:51:48;;;;;;;29.30;14.30;;;;;;;-1.22;96.81;101965.69;109375;1244;70243;-75
2023/03/02 04:54:25;;;;;;;38.60;18.80;;;;;;;-1.26;97.30;101966.91;109495;1244;70374;-74
2023/03/02 04:56:53;;;;;;;42.60;21.80;;;;;;;-1.41;97.64;101965.58;109491;1244;74616;-75
2023/03/02 04:59:25;;;;;;;47.30;23.70;;;;;;;-1.43;98.21;101967.46;109210;1247;62557;-78
2023/03/02 05:01:56;;;;;;;39.20;21.00;;;;;;;-1.41;98.75;101970.89;109281;1247;59920;-75
2023/03/02 05:04:26;;;;;;;44.30;21.60;;;;;;;-1.31;98.07;101968.63;109338;1244;70711;-73
2023/03/02 05:06:54;;;;;;;26.00;13.00;;;;;;;-1.29;98.86;101970.01;109408;1244;71708;-76
2023/03/02 05:09:26;;;;;;;37.20;19.20;;;;;;;-1.17;98.24;101968.92;109371;1244;69196;-76
2023/03/02 05:11:55;;;;;;;50.60;23.90;;;;;;;-1.21;97.94;101973.89;109363;1244;71897;-76
2023/03/02 05:14:24;;;;;;;49.60;24.90;;;;;;;-1.26;99.48;101973.06;109254;1248;60489;-80
2023/03/02 05:16:52;;;;;;;49.20;22.30;;;;;;;-1.17;99.14;101971.48;109380;1244;61274;-80
2023/03/02 05:19:20;;;;;;;43.20;24.00;;;;;;;-1.13;98.74;101980.70;109388;1244;73088;-77
2023/03/02 05:21:47;;;;;;;48.80;24.10;;;;;;;-1.06;98.69;101980.52;109290;1244;70662;-84
2023/03/02 05:24:15;;;;;;;33.70;16.60;;;;;;;-0.98;98.54;101982.52;109508;1243;69734;-84
2023/03/02 05:26:43;;;;;;;33.50;16.90;;;;;;;-0.87;97.34;101983.67;109544;1244;73705;-85
2023/03/02 05:29:10;;;;;;;26.60;12.50;;;;;;;-0.89;97.54;101981.29;109535;1244;60262;-79
2023/03/02 05:31:41;;;;;;;39.90;20.10;;;;;;;-0.86;97.11;101985.73;109461;1242;61345;-82
2023/03/02 05:34:12;;;;;;;45.20;21.00;;;;;;;-0.91;97.26;101987.80;109574;1244;71528;-85
2023/03/02 05:36:39;;;;;;;42.10;19.90;;;;;;;-0.92;97.56;101993.11;109430;1243;71567;-86
2023/03/02 05:39:08;;;;;;;33.80;17.00;;;;;;;-0.86;97.33;101995.98;109620;1244;70143;-87
2023/03/02 05:41:36;;;;;;;36.80;16.40;;;;;;;-0.83;97.33;102001.61;109591;1243;72402;-85
2023/03/02 05:44:08;;;;;;;37.00;18.30;;;;;;;-0.87;97.07;102002.48;109398;1248;59731;-87
2023/03/02 05:46:36;;;;;;;34.80;16.80;;;;;;;-0.90;97.20;102008.83;109273;1248;59907;-84
2023/03/02 05:49:03;;;;;;;31.50;15.70;;;;;;;-0.93;97.56;102001.49;109514;1243;70941;-85
2023/03/02 05:51:31;;;;;;;34.00;17.10;;;;;;;-0.87;97.37;102001.63;109395;1244;71368;-86
2023/03/02 05:53:58;;;;;;;41.40;22.10;;;;;;;-0.95;97.63;102005.27;109577;1243;69396;-87
2023/03/02 05:56:25;;;;;;;49.10;22.70;;;;;;;-1.01;99.34;102007.15;109698;1244;74349;-85
2023/03/02 05:58:53;;;;;;;46.70;23.30;;;;;;;-0.85;98.71;102010.01;109602;1245;60799;-86
2023/03/02 06:01:21;;;;;;;46.90;22.80;;;;;;;-0.77;98.51;102003.30;109434;1244;61819;-86
2023/03/02 06:03:48;;;;;;;32.90;15.50;;;;;;;-0.65;98.64;102004.77;109473;1244;71145;-84
2023/03/02 06:06:16;;;;;;;41.20;19.20;;;;;;;-0.45;97.37;102008.42;109660;1244;70310;-89
2023/03/02 06:08:44;;;;;;;42.00;18.90;;;;;;;-0.40;96.72;101999.15;109545;1243;68923;-85
2023/03/02 06:11:11;;;;;;;41.00;21.60;;;;;;;-0.36;96.51;102003.40;109518;1244;72122;-86
2023/03/02 06:13:39;;;;;;;36.10;17.70;;;;;;;-0.36;96.44;102007.00;109534;1244;60334;-87
2023/03/02 06:16:08;;;;;;;42.40;20.10;;;;;;;-0.36;96.61;102006.31;109391;1246;60586;-87
2023/03/02 06:18:37;;;;;;;33.00;17.70;;;;;;;-0.21;95.95;102006.55;109525;1245;72075;-87
2023/03/02 06:21:08;;;;;;;41.60;21.10;;;;;;;-0.18;95.85;102006.88;109563;1244;72016;-84
2023/03/02 06:23:36;;;;;;;27.70;15.50;;;;;;;-0.16;96.08;102012.35;109922;1243;70011;-85
2023/03/02 06:26:10;;;;;;;40.40;19.20;;;;;;;-0.16;95.80;102010.27;109832;1244;71381;-85
2023/03/02 06:28:38;;;;;;;33.90;17.20;;;;;;;-0.15;95.98;102012.67;109781;1244;59594;-84
2023/03/02 06:31:19;;;;;;;36.40;17.60;;;;;;;-0.07;95.75;102018.27;109639;1244;60139;-82
2023/03/02 06:33:46;;;;;;;35.90;19.00;;;;;;;-0.04;95.29;102020.99;109582;1243;73889;-87
2023/03/02 06:36:15;;;;;;;34.00;17.60;;;;;;;0.02;95.44;102018.54;109633;1244;70655;-85
2023/03/02 06:38:43;;;;;;;25.70;14.40;;;;;;;0.16;94.52;102014.48;109629;1244;69182;-86
2023/03/02 06:41:10;;;;;;;25.20;13.50;;;;;;;0.26;93.02;102007.38;109476;1244;74376;-87
2023/03/02 06:43:38;;;;;;;26.70;11.80;;;;;;;0.27;92.07;102009.77;109638;1242;60571;-86
2023/03/02 06:46:05;;;;;;;42.40;20.50;;;;;;;0.32;91.69;102011.95;109684;1243;61003;-87
2023/03/02 06:48:33;;;;;;;30.50;16.40;;;;;;;0.32;91.81;102015.38;109453;1244;71508;-89
2023/03/02 06:51:01;;;;;;;34.10;17.30;;;;;;;0.41;91.62;102014.43;109415;1244;72353;-85
2023/03/02 06:53:28;;;;;;;35.20;18.60;;;;;;;0.50;91.27;102011.27;109486;1243;68949;-83
2023/03/02 06:55:56;;;;;;;37.10;18.40;;;;;;;0.58;90.66;102012.21;109429;1248;71579;-88
2023/03/02 06:58:24;;;;;;;33.90;17.10;;;;;;;0.68;90.04;102015.88;109477;1246;61271;-89
2023/03/02 07:00:52;;;;;;;38.00;18.10;;;;;;;0.70;90.35;102021.52;109466;1243;62243;-88
2023/03/02 07:03:19;;;;;;;37.40;19.00;;;;;;;0.76;90.67;102026.95;109379;1243;73301;-86
2023/03/02 07:05:48;;;;;;;38.50;18.60;;;;;;;0.87;90.46;102028.71;109267;1244;72215;-88
2023/03/02 07:08:16;;;;;;;36.20;19.30;;;;;;;0.95;90.84;102030.85;109615;1243;67824;-87
2023/03/02 07:10:44;;;;;;;44.30;22.50;;;;;;;1.09;91.23;102028.96;109950;1243;71889;-89
2023/03/02 07:13:11;;;;;;;47.10;22.10;;;;;;;1.22;90.59;102034.98;110022;1242;59588;-87
2023/03/02 07:15:39;;;;;;;38.90;20.80;;;;;;;1.37;90.77;102032.39;109883;1242;59003;-88
2023/03/02 07:18:07;;;;;;;41.60;20.60;;;;;;;1.49;90.47;102037.38;109569;1243;71587;-90
2023/03/02 07:20:35;;;;;;;50.30;23.50;;;;;;;1.69;89.91;102031.10;109521;1245;70197;-89
2023/03/02 07:23:04;;;;;;;47.10;21.40;;;;;;;1.75;88.00;102030.32;109554;1244;70483;-88
2023/03/02 07:25:32;;;;;;;46.30;23.20;;;;;;;1.85;87.56;102034.11;109450;1249;71489;-90
2023/03/02 07:28:00;;;;;;;43.30;22.90;;;;;;;1.87;84.75;102035.98;109504;1247;60374;-90
2023/03/02 07:30:27;;;;;;;37.60;20.80;;;;;;;1.99;84.64;102033.04;109444;1247;59134;-90
2023/03/02 07:32:55;;;;;;;52.00;24.60;;;;;;;2.30;86.45;102033.22;109499;1244;72876;-91
2023/03/02 07:35:22;;;;;;;51.30;26.50;;;;;;;2.45;84.06;102031.77;109717;1242;70776;-85
2023/03/02 07:37:51;;;;;;;39.20;20.30;;;;;;;2.43;82.98;102036.60;109491;1243;70403;-91
2023/03/02 07:40:19;;;;;;;40.50;21.30;;;;;;;2.44;82.48;102035.58;109521;1243;73606;-90
2023/03/02 07:42:47;;;;;;;38.90;21.80;;;;;;;2.42;83.45;102033.02;109494;1243;59057;-91
2023/03/02 07:45:15;;;;;;;38.80;21.30;;;;;;;2.55;82.36;102037.10;109513;1242;62099;-90
2023/03/02 07:47:43;;;;;;;34.40;19.00;;;;;;;2.40;81.54;102031.16;109343;1243;71325;-90
2023/03/02 07:50:11;;;;;;;36.70;20.00;;;;;;;2.59;80.71;102032.02;109430;1244;71207;-90
2023/03/02 07:52:39;;;;;;;43.80;19.50;;;;;;;2.52;81.21;102033.54;109165;1243;72232;-89
2023/03/02 07:55:08;;;;;;;43.50;22.40;;;;;;;2.21;80.85;102032.35;109207;1244;74705;-89
2023/03/02 07:57:36;;;;;;;36.00;21.00;;;;;;;2.61;80.56;102029.92;109279;1246;60814;-88
2023/03/02 08:00:05;;;;;;;38.50;20.50;;;;;;;2.66;80.39;102026.73;109244;1244;61856;-89
2023/03/02 08:02:40;;;;;;;34.60;18.40;;;;;;;2.74;80.98;102026.42;109521;1244;71048;-89
2023/03/02 08:05:10;;;;;;;37.70;18.50;;;;;;;2.90;80.35;102024.56;109580;1245;71971;-92
2023/03/02 08:07:39;;;;;;;33.50;18.30;;;;;;;3.03;79.87;102024.66;109512;1243;70400;-89
2023/03/02 08:10:07;;;;;;;33.60;17.50;;;;;;;2.89;78.61;102024.22;109415;1243;74367;-91
2023/03/02 08:12:35;;;;;;;32.40;16.20;;;;;;;3.06;79.75;102027.69;109450;1246;58470;-90
2023/03/02 08:15:03;;;;;;;38.30;20.50;;;;;;;3.18;77.91;102027.10;109473;1244;61454;-91
2023/03/02 08:17:31;;;;;;;35.00;19.00;;;;;;;3.30;77.82;102028.06;109550;1244;73993;-90
2023/03/02 08:19:59;;;;;;;33.30;16.60;;;;;;;3.40;77.86;102021.98;109712;1242;69931;-93
2023/03/02 08:22:27;;;;;;;38.70;19.70;;;;;;;3.52;76.11;102022.23;109714;1242;70057;-90
2023/03/02 08:24:54;;;;;;;30.60;17.00;;;;;;;3.31;75.53;102017.70;109604;1242;71391;-91
2023/03/02 08:27:22;;;;;;;32.00;16.70;;;;;;;3.60;76.85;102017.75;109519;1245;59441;-92
2023/03/02 08:29:50;;;;;;;29.60;17.00;;;;;;;3.67;75.35;102013.46;109493;1244;59979;-91
2023/03/02 08:32:17;;;;;;;30.80;17.00;;;;;;;3.82;73.90;102012.08;109552;1245;72980;-89
2023/03/02 08:34:50;;;;;;;36.20;18.50;;;;;;;3.72;72.88;102013.33;109735;1244;70446;-91
2023/03/02 08:37:18;;;;;;;34.10;17.60;;;;;;;3.38;72.94;102009.13;109536;1245;69178;-88
2023/03/02 08:39:46;;;;;;;32.00;17.50;;;;;;;3.28;74.15;102010.54;109477;1244;74019;-91
2023/03/02 08:42:13;;;;;;;39.70;17.60;;;;;;;3.73;74.62;102014.17;109563;1246;60378;-93
2023/03/02 08:44:41;;;;;;;26.60;14.20;;;;;;;4.01;73.47;102011.27;109533;1244;59989;-89
2023/03/02 08:47:09;;;;;;;25.00;13.30;;;;;;;4.09;72.86;102008.30;109451;1247;73018;-89
2023/03/02 08:49:36;;;;;;;22.40;13.30;;;;;;;4.12;72.48;102002.75;109410;1248;70269;-90
2023/03/02 08:52:04;;;;;;;28.70;14.10;;;;;;;4.11;71.92;102001.55;109674;1246;67823;-89
2023/03/02 08:54:33;;;;;;;32.20;16.00;;;;;;;4.15;69.75;102001.11;109623;1246;71040;-92
2023/03/02 08:57:01;;;;;;;31.90;15.30;;;;;;;4.30;70.03;102000.40;109792;1242;59616;-90
2023/03/02 08:59:29;;;;;;;29.80;15.50;;;;;;;4.27;70.20;101997.71;109502;1243;60804;-87
2023/03/02 09:01:58;;;;;;;18.30;10.80;;;;;;;4.35;70.29;101999.91;109560;1243;73915;-90
2023/03/02 09:04:26;;;;;;;26.90;12.50;;;;;;;4.52;68.01;101995.83;109469;1245;70645;-88
2023/03/02 09:06:54;;;;;;;29.50;12.90;;;;;;;4.55;67.09;101995.93;109474;1245;70553;-88
2023/03/02 09:09:22;;;;;;;25.90;13.40;;;;;;;4.50;67.64;101991.21;109524;1244;73479;-91
2023/03/02 09:11:50;;;;;;;26.00;13.00;;;;;;;4.69;65.77;101995.87;109582;1247;62401;-89
2023/03/02 09:14:17;;;;;;;23.80;12.50;;;;;;;4.61;65.70;101993.35;109933;1244;59120;-88
2023/03/02 09:16:45;;;;;;;22.40;12.10;;;;;;;4.52;66.79;101986.69;109823;1244;72745;-85
2023/03/02 09:19:13;;;;;;;31.80;14.50;;;;;;;4.49;67.25;101981.06;108491;1260;69365;-89
2023/03/02 09:21:40;;;;;;;20.80;12.10;;;;;;;4.68;67.00;101980.39;107272;1280;69921;-89
2023/03/02 09:24:08;;;;;;;13.40;6.80;;;;;;;4.58;65.46;101975.48;107115;1281;70905;-90
2023/03/02 09:26:37;;;;;;;15.50;9.00;;;;;;;5.14;62.04;101972.16;106875;1282;60395;-88
2023/03/02 09:29:06;;;;;;;21.50;11.60;;;;;;;5.13;62.20;101965.47;107041;1283;60358;-92
2023/03/02 09:31:35;;;;;;;21.70;10.70;;;;;;;5.01;63.01;101964.61;107057;1283;73951;-88
2023/03/02 09:34:04;;;;;;;18.80;11.10;;;;;;;4.98;62.99;101961.41;107075;1280;70482;-91
2023/03/02 09:36:31;;;;;;;22.60;11.40;;;;;;;4.69;63.19;101958.63;106647;1286;69099;-89
2023/03/02 09:38:59;;;;;;;12.40;7.70;;;;;;;4.71;63.78;101953.90;106979;1283;72434;-90
2023/03/02 09:41:49;;;;;;;20.60;10.80;;;;;;;5.15;63.02;101953.67;107036;1283;59552;-90
2023/03/02 09:45:07;;;;;;;18.80;10.10;;;;;;;5.20;64.58;101950.57;106994;1286;60366;-88
2023/03/02 09:48:00;;;;;;;;;;;;;;;5.31;62.23;101938.15;106926;1280;73467;-89
2023/03/02 09:50:36;;;;;;;22.10;10.50;;;;;;;5.22;61.96;101939.65;107002;1279;61638;-90
2023/03/02 09:53:20;;;;;;;17.30;8.30;;;;;;;5.46;61.79;101931.45;107093;1278;67875;-91
2023/03/02 09:56:01;;;;;;;17.80;9.40;;;;;;;5.82;60.70;101931.70;107154;1281;73902;-92
2023/03/02 09:58:41;;;;;;;17.80;7.40;;;;;;;6.05;59.86;101927.65;106870;1280;57836;-91
2023/03/02 10:01:15;;;;;;;15.00;8.10;;;;;;;6.21;55.86;101926.59;106949;1279;57666;-91
2023/03/02 10:04:04;;;;;;;17.50;7.80;;;;;;;5.65;57.26;101929.46;106672;1279;74078;-88
2023/03/02 10:06:32;;;;;;;14.10;5.90;;;;;;;5.62;56.97;101925.95;106904;1279;72266;-88
2023/03/02 10:08:59;;;;;;;15.50;7.70;;;;;;;5.50;56.39;101920.27;107132;1280;61635;-90
2023/03/02 10:11:33;;;;;;;15.00;8.30;;;;;;;5.10;58.97;101918.23;107119;1281;71970;-91
2023/03/02 10:14:25;;;;;;;17.80;7.30;;;;;;;5.24;59.14;101911.77;107028;1280;57641;-90
2023/03/02 10:17:27;;;;;;;21.70;9.20;;;;;;;5.48;57.84;101904.45;106947;1283;61200;-89
2023/03/02 10:20:07;;;;;;;15.30;6.70;;;;;;;5.36;57.87;101899.66;106981;1282;62076;-89
2023/03/02 10:22:43;;;;;;;14.80;7.10;;;;;;;5.47;56.05;101895.66;106960;1279;72139;-90
2023/03/02 10:25:33;;;;;;;11.70;6.80;;;;;;;5.25;56.06;101890.15;106818;1279;70420;-90
2023/03/02 10:28:23;;;;;;;12.20;5.60;;;;;;;5.02;56.93;101879.47;107016;1282;72665;-87
2023/03/02 10:31:06;;;;;;;13.00;5.80;;;;;;;5.22;55.81;101879.20;106928;1280;57779;-90
2023/03/02 10:33:37;;;;;;;9.90;5.90;;;;;;;5.21;56.43;101872.98;106882;1281;58897;-91
2023/03/02 10:36:34;;;;;;;19.40;7.40;;;;;;;5.20;56.60;101870.63;106862;1282;71674;-89
2023/03/02 10:39:10;;;;;;;11.90;6.70;;;;;;;5.68;55.03;101870.42;106971;1282;61716;-88
2023/03/02 10:41:50;;;;;;;12.70;4.80;;;;;;;5.81;55.07;101868.79;107136;1281;69750;-92
2023/03/02 10:44:30;;;;;;;13.40;6.70;;;;;;;6.02;53.74;101859.78;106745;1282;71897;-91
2023/03/02 10:46:58;;;;;;;13.50;7.30;;;;;;;6.04;53.84;101857.45;106819;1284;59644;-92
2023/03/02 10:49:31;;;;;;;12.40;7.80;;;;;;;6.02;53.22;101854.09;107119;1280;60147;-91
2023/03/02 10:52:14;;;;;;;11.80;6.10;;;;;;;6.73;53.80;101854.05;106756;1282;73502;-91
2023/03/02 10:54:42;;;;;;;15.80;7.10;;;;;;;7.03;51.76;101851.50;106847;1282;71308;-93
2023/03/02 10:57:35;;;;;;;9.80;5.10;;;;;;;6.87;50.50;101850.23;106704;1281;67754;-90
2023/03/02 11:00:17;;;;;;;11.50;8.10;;;;;;;7.29;50.06;101843.91;106576;1281;73125;-91
2023/03/02 11:03:20;;;;;;;12.10;6.20;;;;;;;7.56;50.06;101843.81;106952;1282;58309;-94
2023/03/02 11:05:48;;;;;;;12.20;5.90;;;;;;;8.28;49.95;101839.88;107097;1281;57244;-91
2023/03/02 11:08:20;;;;;;;12.40;6.20;;;;;;;8.04;46.77;101834.65;106980;1281;70878;-91
2023/03/02 11:10:59;;;;;;;13.60;6.70;;;;;;;8.05;46.41;101824.73;107092;1281;69669;-92
2023/03/02 11:13:35;;;;;;;8.60;4.50;;;;;;;8.92;47.21;101828.39;107223;1280;72052;-91
2023/03/02 11:16:18;;;;;;;11.40;5.40;;;;;;;10.02;42.79;101827.96;106935;1282;73136;-92
2023/03/02 11:18:59;;;;;;;11.70;6.00;;;;;;;9.67;43.14;101823.33;106772;1281;57313;-91
2023/03/02 11:22:05;;;;;;;10.00;5.90;;;;;;;9.01;45.12;101819.81;106946;1282;57293;-93
2023/03/02 11:24:55;;;;;;;12.40;6.50;;;;;;;8.26;45.42;101818.58;106951;1281;72143;-89
2023/03/02 11:27:34;;;;;;;11.20;5.50;;;;;;;8.61;45.42;101817.83;106857;1281;61255;-93